sensor_id;sensor_type;location;lat;lon;timestamp;P1;durP1;ratioP1;P2;durP2;ratioP2
65271;SDS011;51868;48.812;8.198;2022-08-25T00:00:12;3.28;;;2.03;;
65271;SDS011;51868;48.812;8.198;2022-08-25T00:02:41;2.35;;;2.10;;
65271;SDS011;51868;48.812;8.198;2022-08-25T00:05:22;2.90;;;2.10;;
65271;SDS011;51868;48.812;8.198;2022-08-25T00:07:54;4.22;;;2.28;;
65271;SDS011;51868;48.812;8.198;2022-08-25T00:10:23;2.55;;;2.15;;
65271;SDS011;51868;48.812;8.198;2022-08-25T00:12:51;2.30;;;2.00;;
65271;SDS011;51868;48.812;8.198;2022-08-25T00:15:20;2.20;;;2.00;;
65271;SDS011;51868;48.812;8.198;2022-08-25T00:17:49;2.53;;;2.30;;
65271;SDS011;51868;48.812;8.198;2022-08-25T00:20:17;1.98;;;1.80;;
65271;SDS011;51868;48.812;8.198;2022-08-25T00:22:47;2.30;;;2.10;;
65271;SDS011;51868;48.812;8.198;2022-08-25T00:25:18;3.72;;;2.03;;
65271;SDS011;51868;48.812;8.198;2022-08-25T00:27:49;4.57;;;2.38;;
65271;SDS011;51868;48.812;8.198;2022-08-25T00:30:18;4.75;;;2.30;;
65271;SDS011;51868;48.812;8.198;2022-08-25T00:32:50;3.22;;;2.50;;
65271;SDS011;51868;48.812;8.198;2022-08-25T00:35:23;4.18;;;2.05;;
65271;SDS011;51868;48.812;8.198;2022-08-25T00:37:52;2.75;;;1.92;;
65271;SDS011;51868;48.812;8.198;2022-08-25T00:40:21;2.45;;;2.25;;
65271;SDS011;51868;48.812;8.198;2022-08-25T00:42:51;3.80;;;2.03;;
65271;SDS011;51868;48.812;8.198;2022-08-25T00:45:19;2.58;;;1.90;;
65271;SDS011;51868;48.812;8.198;2022-08-25T00:47:49;2.33;;;2.13;;
65271;SDS011;51868;48.812;8.198;2022-08-25T00:50:17;2.65;;;2.45;;
65271;SDS011;51868;48.812;8.198;2022-08-25T00:52:47;4.05;;;2.17;;
65271;SDS011;51868;48.812;8.198;2022-08-25T00:55:17;2.45;;;1.98;;
65271;SDS011;51868;48.812;8.198;2022-08-25T00:57:50;4.10;;;2.30;;
65271;SDS011;51868;48.812;8.198;2022-08-25T01:00:23;5.30;;;2.80;;
65271;SDS011;51868;48.812;8.198;2022-08-25T01:02:56;4.47;;;2.40;;
65271;SDS011;51868;48.812;8.198;2022-08-25T01:05:25;2.50;;;2.30;;
65271;SDS011;51868;48.812;8.198;2022-08-25T01:07:58;8.85;;;2.85;;
65271;SDS011;51868;48.812;8.198;2022-08-25T01:10:32;3.08;;;2.45;;
65271;SDS011;51868;48.812;8.198;2022-08-25T01:13:10;6.63;;;2.42;;
65271;SDS011;51868;48.812;8.198;2022-08-25T01:15:43;4.28;;;2.70;;
65271;SDS011;51868;48.812;8.198;2022-08-25T01:18:13;3.75;;;2.65;;
65271;SDS011;51868;48.812;8.198;2022-08-25T01:20:42;5.10;;;2.55;;
65271;SDS011;51868;48.812;8.198;2022-08-25T01:23:15;4.75;;;2.63;;
65271;SDS011;51868;48.812;8.198;2022-08-25T01:25:47;3.40;;;2.50;;
65271;SDS011;51868;48.812;8.198;2022-08-25T01:28:19;3.35;;;2.50;;
65271;SDS011;51868;48.812;8.198;2022-08-25T01:30:48;4.13;;;2.42;;
65271;SDS011;51868;48.812;8.198;2022-08-25T01:33:18;4.38;;;2.50;;
65271;SDS011;51868;48.812;8.198;2022-08-25T01:35:46;5.90;;;2.60;;
65271;SDS011;51868;48.812;8.198;2022-08-25T01:38:16;3.70;;;2.70;;
65271;SDS011;51868;48.812;8.198;2022-08-25T01:40:48;3.25;;;2.67;;
65271;SDS011;51868;48.812;8.198;2022-08-25T01:43:29;4.60;;;2.72;;
65271;SDS011;51868;48.812;8.198;2022-08-25T01:46:02;4.20;;;2.67;;
65271;SDS011;51868;48.812;8.198;2022-08-25T01:48:30;3.63;;;2.60;;
65271;SDS011;51868;48.812;8.198;2022-08-25T01:50:58;4.50;;;2.60;;
65271;SDS011;51868;48.812;8.198;2022-08-25T01:53:28;4.88;;;2.95;;
65271;SDS011;51868;48.812;8.198;2022-08-25T01:55:59;3.28;;;2.97;;
65271;SDS011;51868;48.812;8.198;2022-08-25T01:58:35;3.20;;;2.50;;
65271;SDS011;51868;48.812;8.198;2022-08-25T02:01:06;2.72;;;2.53;;
65271;SDS011;51868;48.812;8.198;2022-08-25T02:03:41;3.40;;;2.72;;
65271;SDS011;51868;48.812;8.198;2022-08-25T02:06:14;4.85;;;2.70;;
65271;SDS011;51868;48.812;8.198;2022-08-25T02:08:56;3.35;;;2.83;;
65271;SDS011;51868;48.812;8.198;2022-08-25T02:11:27;5.13;;;3.30;;
65271;SDS011;51868;48.812;8.198;2022-08-25T02:13:55;4.43;;;3.10;;
65271;SDS011;51868;48.812;8.198;2022-08-25T02:16:25;2.97;;;2.60;;
65271;SDS011;51868;48.812;8.198;2022-08-25T02:18:56;2.90;;;2.60;;
65271;SDS011;51868;48.812;8.198;2022-08-25T02:21:24;3.60;;;2.80;;
65271;SDS011;51868;48.812;8.198;2022-08-25T02:23:54;4.15;;;2.80;;
65271;SDS011;51868;48.812;8.198;2022-08-25T02:26:27;3.92;;;2.65;;
65271;SDS011;51868;48.812;8.198;2022-08-25T02:28:56;4.10;;;2.83;;
65271;SDS011;51868;48.812;8.198;2022-08-25T02:31:24;6.10;;;3.08;;
65271;SDS011;51868;48.812;8.198;2022-08-25T02:33:55;4.68;;;2.85;;
65271;SDS011;51868;48.812;8.198;2022-08-25T02:36:24;3.17;;;2.88;;
65271;SDS011;51868;48.812;8.198;2022-08-25T02:38:56;4.55;;;3.15;;
65271;SDS011;51868;48.812;8.198;2022-08-25T02:41:29;3.58;;;2.60;;
65271;SDS011;51868;48.812;8.198;2022-08-25T02:44:04;3.45;;;2.75;;
65271;SDS011;51868;48.812;8.198;2022-08-25T02:46:54;4.60;;;3.00;;
65271;SDS011;51868;48.812;8.198;2022-08-25T02:49:24;7.18;;;3.10;;
65271;SDS011;51868;48.812;8.198;2022-08-25T02:51:59;4.10;;;2.70;;
65271;SDS011;51868;48.812;8.198;2022-08-25T02:54:35;3.10;;;2.80;;
65271;SDS011;51868;48.812;8.198;2022-08-25T02:57:05;3.60;;;2.93;;
65271;SDS011;51868;48.812;8.198;2022-08-25T02:59:45;5.18;;;3.17;;
65271;SDS011;51868;48.812;8.198;2022-08-25T03:02:18;4.93;;;3.28;;
65271;SDS011;51868;48.812;8.198;2022-08-25T03:04:50;3.55;;;3.25;;
65271;SDS011;51868;48.812;8.198;2022-08-25T03:07:20;3.90;;;2.90;;
65271;SDS011;51868;48.812;8.198;2022-08-25T03:09:56;5.28;;;3.13;;
65271;SDS011;51868;48.812;8.198;2022-08-25T03:12:34;3.97;;;3.10;;
65271;SDS011;51868;48.812;8.198;2022-08-25T03:15:03;4.47;;;3.00;;
65271;SDS011;51868;48.812;8.198;2022-08-25T03:17:38;4.45;;;3.10;;
65271;SDS011;51868;48.812;8.198;2022-08-25T03:20:10;5.60;;;3.60;;
65271;SDS011;51868;48.812;8.198;2022-08-25T03:22:41;4.70;;;3.33;;
65271;SDS011;51868;48.812;8.198;2022-08-25T03:25:21;4.97;;;3.30;;
65271;SDS011;51868;48.812;8.198;2022-08-25T03:28:07;3.47;;;3.00;;
65271;SDS011;51868;48.812;8.198;2022-08-25T03:30:37;3.47;;;3.15;;
65271;SDS011;51868;48.812;8.198;2022-08-25T03:33:09;4.90;;;3.30;;
65271;SDS011;51868;48.812;8.198;2022-08-25T03:35:38;3.40;;;3.10;;
65271;SDS011;51868;48.812;8.198;2022-08-25T03:38:08;4.13;;;2.83;;
65271;SDS011;51868;48.812;8.198;2022-08-25T03:40:38;5.03;;;3.15;;
65271;SDS011;51868;48.812;8.198;2022-08-25T03:43:06;5.38;;;3.20;;
65271;SDS011;51868;48.812;8.198;2022-08-25T03:45:49;6.25;;;3.83;;
65271;SDS011;51868;48.812;8.198;2022-08-25T03:48:19;5.05;;;3.83;;
65271;SDS011;51868;48.812;8.198;2022-08-25T03:50:51;6.88;;;3.40;;
65271;SDS011;51868;48.812;8.198;2022-08-25T03:53:24;3.65;;;3.10;;
65271;SDS011;51868;48.812;8.198;2022-08-25T03:55:53;3.90;;;3.05;;
65271;SDS011;51868;48.812;8.198;2022-08-25T03:58:22;3.47;;;3.00;;
65271;SDS011;51868;48.812;8.198;2022-08-25T04:00:52;4.47;;;3.20;;
65271;SDS011;51868;48.812;8.198;2022-08-25T04:03:22;5.32;;;3.63;;
65271;SDS011;51868;48.812;8.198;2022-08-25T04:05:50;5.63;;;3.42;;
65271;SDS011;51868;48.812;8.198;2022-08-25T04:08:18;4.63;;;3.25;;
65271;SDS011;51868;48.812;8.198;2022-08-25T04:10:53;5.40;;;3.67;;
65271;SDS011;51868;48.812;8.198;2022-08-25T04:13:25;5.20;;;3.30;;
65271;SDS011;51868;48.812;8.198;2022-08-25T04:15:55;5.32;;;3.60;;
65271;SDS011;51868;48.812;8.198;2022-08-25T04:18:26;5.20;;;3.70;;
65271;SDS011;51868;48.812;8.198;2022-08-25T04:21:01;4.28;;;3.53;;
65271;SDS011;51868;48.812;8.198;2022-08-25T04:23:30;4.63;;;3.53;;
65271;SDS011;51868;48.812;8.198;2022-08-25T04:26:02;4.25;;;3.55;;
65271;SDS011;51868;48.812;8.198;2022-08-25T04:28:35;5.93;;;3.33;;
65271;SDS011;51868;48.812;8.198;2022-08-25T04:31:04;4.07;;;3.63;;
65271;SDS011;51868;48.812;8.198;2022-08-25T04:33:34;5.07;;;3.35;;
65271;SDS011;51868;48.812;8.198;2022-08-25T04:36:03;5.30;;;3.45;;
65271;SDS011;51868;48.812;8.198;2022-08-25T04:38:37;4.30;;;3.25;;
65271;SDS011;51868;48.812;8.198;2022-08-25T04:41:08;6.25;;;3.42;;
65271;SDS011;51868;48.812;8.198;2022-08-25T04:43:41;9.70;;;3.65;;
65271;SDS011;51868;48.812;8.198;2022-08-25T04:46:10;3.80;;;3.33;;
65271;SDS011;51868;48.812;8.198;2022-08-25T04:48:46;6.07;;;3.50;;
65271;SDS011;51868;48.812;8.198;2022-08-25T04:51:16;5.97;;;3.63;;
65271;SDS011;51868;48.812;8.198;2022-08-25T04:53:57;5.55;;;3.22;;
65271;SDS011;51868;48.812;8.198;2022-08-25T04:56:29;3.58;;;3.25;;
65271;SDS011;51868;48.812;8.198;2022-08-25T04:59:03;4.38;;;3.55;;
65271;SDS011;51868;48.812;8.198;2022-08-25T05:01:32;5.97;;;3.50;;
65271;SDS011;51868;48.812;8.198;2022-08-25T05:04:02;3.95;;;3.28;;
65271;SDS011;51868;48.812;8.198;2022-08-25T05:06:31;4.30;;;3.65;;
65271;SDS011;51868;48.812;8.198;2022-08-25T05:09:03;5.17;;;3.67;;
65271;SDS011;51868;48.812;8.198;2022-08-25T05:11:36;5.13;;;3.60;;
65271;SDS011;51868;48.812;8.198;2022-08-25T05:14:07;4.47;;;3.28;;
65271;SDS011;51868;48.812;8.198;2022-08-25T05:16:40;4.18;;;3.35;;
65271;SDS011;51868;48.812;8.198;2022-08-25T05:19:10;6.28;;;3.65;;
65271;SDS011;51868;48.812;8.198;2022-08-25T05:21:38;6.25;;;3.30;;
65271;SDS011;51868;48.812;8.198;2022-08-25T05:24:09;7.97;;;3.60;;
65271;SDS011;51868;48.812;8.198;2022-08-25T05:26:39;6.55;;;3.13;;
65271;SDS011;51868;48.812;8.198;2022-08-25T05:29:11;5.38;;;3.50;;
65271;SDS011;51868;48.812;8.198;2022-08-25T05:31:57;5.93;;;3.33;;
65271;SDS011;51868;48.812;8.198;2022-08-25T05:34:35;8.57;;;3.70;;
65271;SDS011;51868;48.812;8.198;2022-08-25T05:37:11;4.57;;;3.50;;
65271;SDS011;51868;48.812;8.198;2022-08-25T05:39:44;5.72;;;3.25;;
65271;SDS011;51868;48.812;8.198;2022-08-25T05:42:19;3.50;;;3.20;;
65271;SDS011;51868;48.812;8.198;2022-08-25T05:44:51;3.83;;;3.33;;
65271;SDS011;51868;48.812;8.198;2022-08-25T05:47:30;4.55;;;3.38;;
65271;SDS011;51868;48.812;8.198;2022-08-25T05:50:02;5.38;;;3.38;;
65271;SDS011;51868;48.812;8.198;2022-08-25T05:52:36;5.75;;;3.47;;
65271;SDS011;51868;48.812;8.198;2022-08-25T05:55:05;4.80;;;3.40;;
65271;SDS011;51868;48.812;8.198;2022-08-25T05:57:38;4.22;;;3.15;;
65271;SDS011;51868;48.812;8.198;2022-08-25T06:00:18;8.68;;;3.60;;
65271;SDS011;51868;48.812;8.198;2022-08-25T06:02:51;6.82;;;4.00;;
65271;SDS011;51868;48.812;8.198;2022-08-25T06:05:38;3.83;;;3.00;;
65271;SDS011;51868;48.812;8.198;2022-08-25T06:08:15;3.63;;;2.97;;
65271;SDS011;51868;48.812;8.198;2022-08-25T06:11:01;5.03;;;3.50;;
65271;SDS011;51868;48.812;8.198;2022-08-25T06:13:49;5.70;;;3.25;;
65271;SDS011;51868;48.812;8.198;2022-08-25T06:16:29;6.65;;;3.10;;
65271;SDS011;51868;48.812;8.198;2022-08-25T06:19:32;3.63;;;3.03;;
65271;SDS011;51868;48.812;8.198;2022-08-25T06:22:20;5.00;;;2.90;;
65271;SDS011;51868;48.812;8.198;2022-08-25T06:25:06;7.03;;;3.30;;
65271;SDS011;51868;48.812;8.198;2022-08-25T06:27:36;6.53;;;3.30;;
65271;SDS011;51868;48.812;8.198;2022-08-25T06:30:13;6.47;;;3.35;;
65271;SDS011;51868;48.812;8.198;2022-08-25T06:32:59;5.25;;;3.20;;
65271;SDS011;51868;48.812;8.198;2022-08-25T06:35:35;6.47;;;3.08;;
65271;SDS011;51868;48.812;8.198;2022-08-25T06:38:05;8.60;;;3.25;;
65271;SDS011;51868;48.812;8.198;2022-08-25T06:40:37;6.95;;;3.30;;
65271;SDS011;51868;48.812;8.198;2022-08-25T06:43:05;5.38;;;3.33;;
65271;SDS011;51868;48.812;8.198;2022-08-25T06:45:35;4.63;;;3.25;;
65271;SDS011;51868;48.812;8.198;2022-08-25T06:48:04;7.60;;;3.33;;
65271;SDS011;51868;48.812;8.198;2022-08-25T06:50:40;5.47;;;3.40;;
65271;SDS011;51868;48.812;8.198;2022-08-25T06:53:12;8.25;;;3.20;;
65271;SDS011;51868;48.812;8.198;2022-08-25T06:55:41;10.90;;;3.13;;
65271;SDS011;51868;48.812;8.198;2022-08-25T06:58:35;7.75;;;3.20;;
65271;SDS011;51868;48.812;8.198;2022-08-25T07:01:09;9.38;;;3.15;;
65271;SDS011;51868;48.812;8.198;2022-08-25T07:03:45;10.53;;;3.37;;
65271;SDS011;51868;48.812;8.198;2022-08-25T07:06:21;4.65;;;3.65;;
65271;SDS011;51868;48.812;8.198;2022-08-25T07:08:51;6.28;;;3.17;;
65271;SDS011;51868;48.812;8.198;2022-08-25T07:11:26;5.43;;;3.00;;
65271;SDS011;51868;48.812;8.198;2022-08-25T07:14:14;7.28;;;2.90;;
65271;SDS011;51868;48.812;8.198;2022-08-25T07:16:57;5.55;;;3.03;;
65271;SDS011;51868;48.812;8.198;2022-08-25T07:19:37;4.53;;;3.20;;
65271;SDS011;51868;48.812;8.198;2022-08-25T07:22:06;5.03;;;3.08;;
65271;SDS011;51868;48.812;8.198;2022-08-25T07:24:40;7.75;;;3.35;;
65271;SDS011;51868;48.812;8.198;2022-08-25T07:27:27;5.18;;;3.28;;
65271;SDS011;51868;48.812;8.198;2022-08-25T07:30:08;3.65;;;2.78;;
65271;SDS011;51868;48.812;8.198;2022-08-25T07:33:09;7.47;;;3.22;;
65271;SDS011;51868;48.812;8.198;2022-08-25T07:36:11;4.03;;;3.55;;
65271;SDS011;51868;48.812;8.198;2022-08-25T07:38:53;5.25;;;2.95;;
65271;SDS011;51868;48.812;8.198;2022-08-25T07:41:25;8.32;;;3.60;;
65271;SDS011;51868;48.812;8.198;2022-08-25T07:44:17;3.80;;;2.85;;
65271;SDS011;51868;48.812;8.198;2022-08-25T07:46:59;4.40;;;3.28;;
65271;SDS011;51868;48.812;8.198;2022-08-25T07:49:36;5.15;;;2.75;;
65271;SDS011;51868;48.812;8.198;2022-08-25T07:52:06;5.32;;;2.92;;
65271;SDS011;51868;48.812;8.198;2022-08-25T07:54:44;4.65;;;2.65;;
65271;SDS011;51868;48.812;8.198;2022-08-25T08:00:25;3.70;;;2.78;;
65271;SDS011;51868;48.812;8.198;2022-08-25T08:03:14;9.48;;;2.95;;
65271;SDS011;51868;48.812;8.198;2022-08-25T08:08:58;4.35;;;3.03;;
65271;SDS011;51868;48.812;8.198;2022-08-25T08:11:42;4.85;;;2.97;;
65271;SDS011;51868;48.812;8.198;2022-08-25T08:14:19;4.50;;;3.17;;
65271;SDS011;51868;48.812;8.198;2022-08-25T08:16:48;8.27;;;3.10;;
65271;SDS011;51868;48.812;8.198;2022-08-25T08:19:20;3.75;;;2.67;;
65271;SDS011;51868;48.812;8.198;2022-08-25T08:22:02;3.83;;;2.90;;
65271;SDS011;51868;48.812;8.198;2022-08-25T08:24:37;8.52;;;3.08;;
65271;SDS011;51868;48.812;8.198;2022-08-25T08:27:21;8.30;;;3.15;;
65271;SDS011;51868;48.812;8.198;2022-08-25T08:29:50;6.72;;;3.00;;
65271;SDS011;51868;48.812;8.198;2022-08-25T08:32:19;3.33;;;2.97;;
65271;SDS011;51868;48.812;8.198;2022-08-25T08:35:00;3.75;;;2.92;;
65271;SDS011;51868;48.812;8.198;2022-08-25T08:37:38;5.82;;;2.88;;
65271;SDS011;51868;48.812;8.198;2022-08-25T08:40:11;4.53;;;3.00;;
65271;SDS011;51868;48.812;8.198;2022-08-25T08:43:02;6.50;;;3.67;;
65271;SDS011;51868;48.812;8.198;2022-08-25T08:45:44;5.80;;;3.63;;
65271;SDS011;51868;48.812;8.198;2022-08-25T08:48:29;6.38;;;3.88;;
65271;SDS011;51868;48.812;8.198;2022-08-25T08:54:22;6.75;;;4.80;;
65271;SDS011;51868;48.812;8.198;2022-08-25T09:09:36;3.35;;;2.72;;
65271;SDS011;51868;48.812;8.198;2022-08-25T09:12:21;3.10;;;2.80;;
65271;SDS011;51868;48.812;8.198;2022-08-25T09:15:19;3.20;;;2.90;;
65271;SDS011;51868;48.812;8.198;2022-08-25T09:21:08;3.20;;;2.80;;
65271;SDS011;51868;48.812;8.198;2022-08-25T09:23:58;3.05;;;2.60;;
65271;SDS011;51868;48.812;8.198;2022-08-25T09:27:02;5.80;;;2.75;;
65271;SDS011;51868;48.812;8.198;2022-08-25T09:29:44;2.80;;;2.60;;
65271;SDS011;51868;48.812;8.198;2022-08-25T09:35:18;5.03;;;2.63;;
65271;SDS011;51868;48.812;8.198;2022-08-25T09:38:06;4.35;;;2.53;;
65271;SDS011;51868;48.812;8.198;2022-08-25T09:43:19;4.50;;;2.63;;
65271;SDS011;51868;48.812;8.198;2022-08-25T09:46:05;2.90;;;2.60;;
65271;SDS011;51868;48.812;8.198;2022-08-25T09:48:44;3.00;;;2.80;;
65271;SDS011;51868;48.812;8.198;2022-08-25T09:51:24;2.88;;;2.50;;
65271;SDS011;51868;48.812;8.198;2022-08-25T09:54:16;4.65;;;2.65;;
65271;SDS011;51868;48.812;8.198;2022-08-25T09:56:56;2.80;;;2.60;;
65271;SDS011;51868;48.812;8.198;2022-08-25T09:59:29;3.13;;;2.80;;
65271;SDS011;51868;48.812;8.198;2022-08-25T10:02:02;4.25;;;2.55;;
65271;SDS011;51868;48.812;8.198;2022-08-25T10:04:33;3.22;;;2.92;;
65271;SDS011;51868;48.812;8.198;2022-08-25T10:07:18;3.03;;;2.60;;
65271;SDS011;51868;48.812;8.198;2022-08-25T10:09:50;4.30;;;2.90;;
65271;SDS011;51868;48.812;8.198;2022-08-25T10:12:20;5.45;;;2.83;;
65271;SDS011;51868;48.812;8.198;2022-08-25T10:14:54;3.75;;;2.80;;
65271;SDS011;51868;48.812;8.198;2022-08-25T10:17:23;2.72;;;2.53;;
65271;SDS011;51868;48.812;8.198;2022-08-25T10:20:10;2.65;;;2.45;;
65271;SDS011;51868;48.812;8.198;2022-08-25T10:22:42;2.58;;;2.38;;
65271;SDS011;51868;48.812;8.198;2022-08-25T10:25:18;3.50;;;2.67;;
65271;SDS011;51868;48.812;8.198;2022-08-25T10:28:00;2.40;;;2.10;;
65271;SDS011;51868;48.812;8.198;2022-08-25T10:30:44;7.80;;;2.78;;
65271;SDS011;51868;48.812;8.198;2022-08-25T10:33:18;3.10;;;2.60;;
65271;SDS011;51868;48.812;8.198;2022-08-25T10:35:56;3.33;;;2.20;;
65271;SDS011;51868;48.812;8.198;2022-08-25T10:38:33;2.58;;;2.30;;
65271;SDS011;51868;48.812;8.198;2022-08-25T10:44:04;3.03;;;2.60;;
65271;SDS011;51868;48.812;8.198;2022-08-25T10:46:57;2.92;;;2.50;;
65271;SDS011;51868;48.812;8.198;2022-08-25T10:49:34;2.90;;;2.60;;
65271;SDS011;51868;48.812;8.198;2022-08-25T10:52:10;2.92;;;2.70;;
65271;SDS011;51868;48.812;8.198;2022-08-25T10:54:44;2.47;;;2.28;;
65271;SDS011;51868;48.812;8.198;2022-08-25T10:57:18;2.47;;;2.28;;
65271;SDS011;51868;48.812;8.198;2022-08-25T10:59:50;3.40;;;2.90;;
65271;SDS011;51868;48.812;8.198;2022-08-25T11:02:42;2.97;;;2.67;;
65271;SDS011;51868;48.812;8.198;2022-08-25T11:05:27;6.53;;;2.47;;
65271;SDS011;51868;48.812;8.198;2022-08-25T11:08:04;6.55;;;2.58;;
65271;SDS011;51868;48.812;8.198;2022-08-25T11:10:39;2.70;;;2.50;;
65271;SDS011;51868;48.812;8.198;2022-08-25T11:13:17;2.83;;;2.63;;
65271;SDS011;51868;48.812;8.198;2022-08-25T11:15:54;3.10;;;2.80;;
65271;SDS011;51868;48.812;8.198;2022-08-25T11:18:47;3.30;;;2.55;;
65271;SDS011;51868;48.812;8.198;2022-08-25T11:21:20;3.13;;;2.80;;
65271;SDS011;51868;48.812;8.198;2022-08-25T11:23:54;3.53;;;2.72;;
65271;SDS011;51868;48.812;8.198;2022-08-25T11:26:33;4.57;;;3.17;;
65271;SDS011;51868;48.812;8.198;2022-08-25T11:29:08;3.40;;;2.80;;
65271;SDS011;51868;48.812;8.198;2022-08-25T11:31:42;2.83;;;2.63;;
65271;SDS011;51868;48.812;8.198;2022-08-25T11:34:20;4.65;;;2.78;;
65271;SDS011;51868;48.812;8.198;2022-08-25T11:36:49;3.45;;;2.60;;
65271;SDS011;51868;48.812;8.198;2022-08-25T11:39:25;3.25;;;2.65;;
65271;SDS011;51868;48.812;8.198;2022-08-25T11:42:10;5.15;;;2.72;;
65271;SDS011;51868;48.812;8.198;2022-08-25T11:44:53;3.60;;;3.20;;
65271;SDS011;51868;48.812;8.198;2022-08-25T11:50:53;3.35;;;2.80;;
65271;SDS011;51868;48.812;8.198;2022-08-25T11:53:23;6.70;;;2.90;;
65271;SDS011;51868;48.812;8.198;2022-08-25T11:55:56;2.67;;;2.33;;
65271;SDS011;51868;48.812;8.198;2022-08-25T11:58:35;3.70;;;2.78;;
65271;SDS011;51868;48.812;8.198;2022-08-25T12:01:08;2.83;;;2.63;;
65271;SDS011;51868;48.812;8.198;2022-08-25T12:03:51;5.65;;;2.72;;
65271;SDS011;51868;48.812;8.198;2022-08-25T12:06:31;5.10;;;2.35;;
65271;SDS011;51868;48.812;8.198;2022-08-25T12:09:17;2.95;;;2.67;;
65271;SDS011;51868;48.812;8.198;2022-08-25T12:11:50;3.90;;;2.47;;
65271;SDS011;51868;48.812;8.198;2022-08-25T12:14:38;2.90;;;2.67;;
65271;SDS011;51868;48.812;8.198;2022-08-25T12:17:24;3.30;;;2.80;;
65271;SDS011;51868;48.812;8.198;2022-08-25T12:23:33;4.40;;;2.97;;
65271;SDS011;51868;48.812;8.198;2022-08-25T12:26:12;3.28;;;2.97;;
65271;SDS011;51868;48.812;8.198;2022-08-25T12:28:52;5.35;;;3.05;;
65271;SDS011;51868;48.812;8.198;2022-08-25T12:31:48;4.00;;;3.03;;
65271;SDS011;51868;48.812;8.198;2022-08-25T12:34:36;4.68;;;3.20;;
65271;SDS011;51868;48.812;8.198;2022-08-25T12:37:14;3.78;;;3.38;;
65271;SDS011;51868;48.812;8.198;2022-08-25T12:39:48;3.80;;;2.80;;
65271;SDS011;51868;48.812;8.198;2022-08-25T12:42:27;5.72;;;3.00;;
65271;SDS011;51868;48.812;8.198;2022-08-25T12:45:12;4.15;;;3.15;;
65271;SDS011;51868;48.812;8.198;2022-08-25T12:51:03;3.83;;;3.38;;
65271;SDS011;51868;48.812;8.198;2022-08-25T12:53:36;4.35;;;3.10;;
65271;SDS011;51868;48.812;8.198;2022-08-25T12:56:20;4.10;;;2.90;;
65271;SDS011;51868;48.812;8.198;2022-08-25T12:59:04;5.50;;;3.03;;
65271;SDS011;51868;48.812;8.198;2022-08-25T13:01:45;3.42;;;3.13;;
65271;SDS011;51868;48.812;8.198;2022-08-25T13:04:31;6.07;;;3.25;;
65271;SDS011;51868;48.812;8.198;2022-08-25T13:07:12;5.55;;;3.15;;
65271;SDS011;51868;48.812;8.198;2022-08-25T13:12:56;3.30;;;3.00;;
65271;SDS011;51868;48.812;8.198;2022-08-25T13:15:32;3.88;;;3.33;;
65271;SDS011;51868;48.812;8.198;2022-08-25T13:18:18;4.47;;;3.40;;
65271;SDS011;51868;48.812;8.198;2022-08-25T13:20:49;3.85;;;3.03;;
65271;SDS011;51868;48.812;8.198;2022-08-25T13:23:27;5.63;;;3.15;;
65271;SDS011;51868;48.812;8.198;2022-08-25T13:26:07;4.95;;;3.08;;
65271;SDS011;51868;48.812;8.198;2022-08-25T13:28:41;4.00;;;2.85;;
65271;SDS011;51868;48.812;8.198;2022-08-25T13:31:20;4.78;;;3.13;;
65271;SDS011;51868;48.812;8.198;2022-08-25T13:33:56;6.07;;;3.28;;
65271;SDS011;51868;48.812;8.198;2022-08-25T13:36:28;5.45;;;3.38;;
65271;SDS011;51868;48.812;8.198;2022-08-25T13:39:24;4.03;;;3.63;;
65271;SDS011;51868;48.812;8.198;2022-08-25T13:42:15;4.80;;;3.50;;
65271;SDS011;51868;48.812;8.198;2022-08-25T13:45:03;4.28;;;3.15;;
65271;SDS011;51868;48.812;8.198;2022-08-25T13:47:40;3.83;;;3.03;;
65271;SDS011;51868;48.812;8.198;2022-08-25T13:50:28;3.28;;;3.00;;
65271;SDS011;51868;48.812;8.198;2022-08-25T13:53:00;7.60;;;3.20;;
65271;SDS011;51868;48.812;8.198;2022-08-25T13:55:33;5.15;;;3.10;;
65271;SDS011;51868;48.812;8.198;2022-08-25T13:58:18;4.45;;;3.08;;
65271;SDS011;51868;48.812;8.198;2022-08-25T14:01:11;4.28;;;3.03;;
65271;SDS011;51868;48.812;8.198;2022-08-25T14:04:21;4.47;;;2.90;;
65271;SDS011;51868;48.812;8.198;2022-08-25T14:07:04;3.70;;;3.08;;
65271;SDS011;51868;48.812;8.198;2022-08-25T14:09:47;3.00;;;2.70;;
65271;SDS011;51868;48.812;8.198;2022-08-25T14:12:27;4.20;;;3.15;;
65271;SDS011;51868;48.812;8.198;2022-08-25T14:14:59;8.18;;;3.30;;
65271;SDS011;51868;48.812;8.198;2022-08-25T14:17:32;3.35;;;3.05;;
65271;SDS011;51868;48.812;8.198;2022-08-25T14:20:06;2.95;;;2.67;;
65271;SDS011;51868;48.812;8.198;2022-08-25T14:22:47;4.70;;;3.13;;
65271;SDS011;51868;48.812;8.198;2022-08-25T14:25:23;4.00;;;3.08;;
65271;SDS011;51868;48.812;8.198;2022-08-25T14:27:54;3.90;;;3.17;;
65271;SDS011;51868;48.812;8.198;2022-08-25T14:30:39;6.85;;;3.17;;
65271;SDS011;51868;48.812;8.198;2022-08-25T14:33:13;3.28;;;2.92;;
65271;SDS011;51868;48.812;8.198;2022-08-25T14:35:45;3.72;;;3.05;;
65271;SDS011;51868;48.812;8.198;2022-08-25T14:38:14;5.60;;;3.33;;
65271;SDS011;51868;48.812;8.198;2022-08-25T14:40:45;5.05;;;3.33;;
65271;SDS011;51868;48.812;8.198;2022-08-25T14:43:15;3.95;;;2.78;;
65271;SDS011;51868;48.812;8.198;2022-08-25T14:45:49;3.88;;;3.00;;
65271;SDS011;51868;48.812;8.198;2022-08-25T14:48:22;3.85;;;2.95;;
65271;SDS011;51868;48.812;8.198;2022-08-25T14:50:53;3.72;;;2.75;;
65271;SDS011;51868;48.812;8.198;2022-08-25T14:53:23;3.80;;;3.30;;
65271;SDS011;51868;48.812;8.198;2022-08-25T14:55:54;2.78;;;2.50;;
65271;SDS011;51868;48.812;8.198;2022-08-25T14:58:25;2.95;;;2.67;;
65271;SDS011;51868;48.812;8.198;2022-08-25T15:01:02;3.35;;;2.95;;
65271;SDS011;51868;48.812;8.198;2022-08-25T15:03:34;3.88;;;2.78;;
65271;SDS011;51868;48.812;8.198;2022-08-25T15:06:08;3.10;;;2.80;;
65271;SDS011;51868;48.812;8.198;2022-08-25T15:08:39;6.78;;;4.10;;
65271;SDS011;51868;48.812;8.198;2022-08-25T15:11:25;4.70;;;3.08;;
65271;SDS011;51868;48.812;8.198;2022-08-25T15:13:54;3.72;;;2.92;;
65271;SDS011;51868;48.812;8.198;2022-08-25T15:16:24;3.08;;;2.83;;
65271;SDS011;51868;48.812;8.198;2022-08-25T15:19:02;6.32;;;3.00;;
65271;SDS011;51868;48.812;8.198;2022-08-25T15:21:32;4.47;;;3.00;;
65271;SDS011;51868;48.812;8.198;2022-08-25T15:24:01;3.20;;;2.78;;
65271;SDS011;51868;48.812;8.198;2022-08-25T15:26:30;5.95;;;3.00;;
65271;SDS011;51868;48.812;8.198;2022-08-25T15:31:29;3.72;;;2.65;;
65271;SDS011;51868;48.812;8.198;2022-08-25T15:33:58;3.00;;;2.70;;
65271;SDS011;51868;48.812;8.198;2022-08-25T15:36:27;6.30;;;3.00;;
65271;SDS011;51868;48.812;8.198;2022-08-25T15:38:55;6.85;;;3.28;;
65271;SDS011;51868;48.812;8.198;2022-08-25T15:41:23;5.68;;;3.10;;
65271;SDS011;51868;48.812;8.198;2022-08-25T15:43:53;3.28;;;2.97;;
65271;SDS011;51868;48.812;8.198;2022-08-25T15:46:21;5.00;;;2.88;;
65271;SDS011;51868;48.812;8.198;2022-08-25T15:48:51;4.18;;;2.88;;
65271;SDS011;51868;48.812;8.198;2022-08-25T15:51:19;4.03;;;3.00;;
65271;SDS011;51868;48.812;8.198;2022-08-25T15:53:48;3.55;;;2.55;;
65271;SDS011;51868;48.812;8.198;2022-08-25T15:58:52;3.13;;;2.60;;
65271;SDS011;51868;48.812;8.198;2022-08-25T16:01:21;5.30;;;2.90;;
65271;SDS011;51868;48.812;8.198;2022-08-25T16:03:55;3.92;;;2.90;;
65271;SDS011;51868;48.812;8.198;2022-08-25T16:06:29;5.43;;;3.08;;
65271;SDS011;51868;48.812;8.198;2022-08-25T16:08:58;3.20;;;2.90;;
65271;SDS011;51868;48.812;8.198;2022-08-25T16:11:30;3.13;;;2.67;;
65271;SDS011;51868;48.812;8.198;2022-08-25T16:14:00;3.30;;;2.97;;
65271;SDS011;51868;48.812;8.198;2022-08-25T16:16:30;5.05;;;3.20;;
65271;SDS011;51868;48.812;8.198;2022-08-25T16:18:59;3.73;;;2.87;;
65271;SDS011;51868;48.812;8.198;2022-08-25T16:21:29;5.75;;;2.75;;
65271;SDS011;51868;48.812;8.198;2022-08-25T16:24:02;3.60;;;2.83;;
65271;SDS011;51868;48.812;8.198;2022-08-25T16:26:33;3.65;;;3.00;;
65271;SDS011;51868;48.812;8.198;2022-08-25T16:29:14;3.05;;;2.75;;